Terminal Aerodrome Forecast
Issued by NWS Cleveland, OH

Home | Current Version | Previous Version | Text Only | Print | Product List | Glossary Off
Versions: 1 2 3 4 5 6 7 8 9 10 11 12 13 14 15 16 17 18 19 20 21 22 23 24 25 26 27 28

076
FTUS41 KCLE 202127 AAD
TAFCLE
TAF AMD
KCLE 202127Z 2021/2124 03010KT P6SM VCSH SCT035 BKN070
      TEMPO 2021/2023 -SHRA BKN035
     FM210000 08010KT P6SM BKN060
     FM210600 14010KT P6SM VCSH OVC060
     FM211000 18012KT 6SM -SHRA OVC025
     FM211500 18015G22KT 5SM -RA BR OVC025
     FM211900 18015G25KT P6SM VCTS BKN035CB=

USA.gov is the U.S. government's official web portal to all federal, state and local government web resources and services.